createdAt,value
2023-03-29T00:00:24.192Z,6.72
2023-03-29T00:03:27.727Z,6.18
2023-03-29T00:06:32.811Z,6.47
2023-03-29T00:09:36.150Z,6.57
2023-03-29T00:12:40.458Z,20.73
2023-03-29T00:15:45.113Z,6.30
2023-03-29T00:18:48.434Z,6.68
2023-03-29T00:21:51.923Z,6.38
2023-03-29T00:24:55.122Z,6.57
2023-03-29T00:27:58.415Z,6.97
2023-03-29T00:31:11.695Z,17.45
2023-03-29T00:34:14.893Z,6.97
2023-03-29T00:37:18.789Z,5.35
2023-03-29T00:40:22.239Z,5.53
2023-03-29T00:43:25.921Z,7.43
2023-03-29T00:46:32.564Z,6.50
2023-03-29T00:49:36.229Z,6.55
2023-03-29T00:52:42.003Z,6.82
2023-03-29T00:55:49.826Z,6.63
2023-03-29T00:58:59.208Z,5.72
2023-03-29T01:02:06.959Z,5.80
2023-03-29T01:05:16.060Z,5.47
2023-03-29T01:08:25.690Z,5.13
2023-03-29T01:11:33.558Z,4.80
2023-03-29T01:14:42.869Z,5.40
2023-03-29T01:17:50.715Z,17.17
2023-03-29T01:21:06.554Z,4.72
2023-03-29T01:24:42.064Z,4.93
2023-03-29T01:27:54.377Z,5.40
2023-03-29T01:31:02.271Z,4.70
2023-03-29T01:34:11.153Z,15.40
2023-03-29T01:37:21.875Z,5.30
2023-03-29T01:40:27.260Z,5.90
2023-03-29T01:43:36.200Z,6.30
2023-03-29T01:46:46.499Z,6.30
2023-03-29T01:49:58.164Z,6.03
2023-03-29T01:53:05.620Z,5.43
2023-03-29T01:56:14.842Z,5.05
2023-03-29T01:59:22.545Z,6.07
2023-03-29T02:02:27.766Z,5.22
2023-03-29T02:05:32.436Z,4.97
2023-03-29T02:08:36.955Z,4.88
2023-03-29T02:11:42.978Z,9.07
2023-03-29T02:14:47.958Z,22.50
2023-03-29T02:17:52.069Z,7.55
2023-03-29T02:21:00.197Z,4.88
2023-03-29T02:24:07.753Z,5.57
2023-03-29T02:27:10.945Z,9.30
2023-03-29T02:30:20.857Z,7.50
2023-03-29T02:33:32.852Z,5.95
2023-03-29T02:36:41.699Z,10.85
2023-03-29T02:39:47.616Z,5.63
2023-03-29T02:42:51.654Z,8.00
2023-03-29T02:45:57.027Z,6.40
2023-03-29T02:49:01.016Z,6.80
2023-03-29T02:52:08.245Z,6.68
2023-03-29T02:55:15.690Z,7.18
2023-03-29T02:58:19.007Z,6.75
2023-03-29T03:01:23.920Z,6.70
2023-03-29T03:04:27.520Z,7.30
2023-03-29T03:07:31.385Z,6.28
2023-03-29T03:10:35.200Z,7.53
2023-03-29T03:13:39.994Z,7.03
2023-03-29T03:16:45.134Z,6.55
2023-03-29T03:19:48.497Z,6.80
2023-03-29T03:22:51.823Z,7.03
2023-03-29T03:25:58.110Z,7.78
2023-03-29T03:29:01.953Z,6.88
2023-03-29T03:32:29.452Z,50.95
2023-03-29T03:36:10.160Z,12.25
2023-03-29T03:39:13.370Z,9.27
2023-03-29T03:42:16.642Z,7.18
2023-03-29T03:45:21.722Z,7.97
2023-03-29T03:48:38.865Z,11.13
2023-03-29T03:51:47.797Z,7.28
2023-03-29T03:54:51.870Z,7.80
2023-03-29T03:58:15.985Z,7.35
2023-03-29T04:01:19.685Z,7.15
2023-03-29T04:04:35.757Z,8.57
2023-03-29T04:07:44.015Z,12.63
2023-03-29T04:10:57.521Z,8.73
2023-03-29T04:14:05.930Z,8.30
2023-03-29T04:17:29.605Z,7.55
2023-03-29T04:20:37.150Z,7.07
2023-03-29T04:23:40.395Z,7.50
2023-03-29T04:26:43.962Z,7.60
2023-03-29T04:29:55.270Z,8.02
2023-03-29T04:33:21.348Z,9.10
2023-03-29T04:36:32.345Z,8.02
2023-03-29T04:39:35.951Z,7.63
2023-03-29T04:42:44.780Z,8.35
2023-03-29T04:45:48.738Z,12.02
2023-03-29T04:49:08.852Z,36.45
2023-03-29T04:52:22.401Z,27.83
2023-03-29T04:55:31.851Z,10.07
2023-03-29T04:58:40.821Z,9.25
2023-03-29T05:01:44.130Z,9.07
2023-03-29T05:04:48.146Z,15.88
2023-03-29T05:07:55.333Z,9.38
2023-03-29T05:11:04.491Z,13.10
2023-03-29T05:14:09.297Z,8.93
2023-03-29T05:17:12.598Z,8.95
2023-03-29T05:20:16.098Z,8.57
2023-03-29T05:23:23.015Z,9.82
2023-03-29T05:26:47.540Z,9.98
2023-03-29T05:29:50.719Z,15.52
2023-03-29T05:33:09.129Z,13.30
2023-03-29T05:36:15.100Z,9.50
2023-03-29T05:42:39.514Z,9.82
2023-03-29T05:49:31.042Z,10.93
2023-03-29T05:52:41.048Z,15.88
2023-03-29T05:55:46.619Z,23.00
2023-03-29T05:58:53.666Z,10.38
2023-03-29T06:02:00.401Z,15.38
2023-03-29T06:05:04.764Z,15.45
2023-03-29T06:08:16.123Z,11.38
2023-03-29T06:11:47.621Z,30.83
2023-03-29T06:15:04.700Z,10.88
2023-03-29T06:18:20.659Z,12.43
2023-03-29T06:21:24.484Z,16.38
2023-03-29T06:24:27.750Z,49.60
2023-03-29T06:27:39.167Z,11.27
2023-03-29T06:30:43.678Z,19.95
2023-03-29T06:33:47.284Z,11.52
2023-03-29T06:37:12.879Z,11.98
2023-03-29T06:40:19.097Z,11.65
2023-03-29T06:43:24.838Z,12.40
2023-03-29T06:46:42.430Z,13.38
2023-03-29T06:49:45.803Z,11.82
2023-03-29T06:53:08.756Z,27.63
2023-03-29T06:56:12.457Z,11.20
2023-03-29T06:59:21.461Z,11.48
2023-03-29T07:02:35.769Z,10.55
2023-03-29T07:05:50.387Z,10.88
2023-03-29T07:08:53.620Z,10.32
2023-03-29T07:12:11.252Z,10.90
2023-03-29T07:15:16.599Z,11.25
2023-03-29T07:18:46.974Z,9.30
2023-03-29T07:22:11.980Z,9.02
2023-03-29T07:25:23.986Z,9.23
2023-03-29T07:28:27.202Z,9.38
2023-03-29T07:31:33.442Z,9.90
2023-03-29T07:34:56.907Z,8.98
2023-03-29T07:38:11.291Z,8.20
2023-03-29T07:41:19.250Z,12.00
2023-03-29T07:44:24.743Z,15.82
2023-03-29T07:47:29.845Z,11.50
2023-03-29T07:50:33.507Z,18.42
2023-03-29T07:53:39.837Z,7.90
2023-03-29T07:56:51.667Z,8.10
2023-03-29T08:00:15.819Z,7.60
2023-03-29T08:03:25.399Z,7.85
2023-03-29T08:06:28.656Z,22.27
2023-03-29T08:09:32.040Z,6.13
2023-03-29T08:12:35.439Z,6.13
2023-03-29T08:15:40.193Z,7.50
2023-03-29T08:18:55.015Z,6.60
2023-03-29T08:22:02.336Z,5.65
2023-03-29T08:25:16.596Z,9.27
2023-03-29T08:28:24.271Z,5.55
2023-03-29T08:31:28.205Z,5.20
2023-03-29T08:34:35.035Z,5.50
2023-03-29T08:37:58.133Z,17.88
2023-03-29T08:41:01.614Z,4.10
2023-03-29T08:44:21.668Z,4.22
2023-03-29T08:47:38.723Z,3.85
2023-03-29T08:50:49.751Z,14.20
2023-03-29T08:53:57.156Z,3.90
2023-03-29T08:57:28.072Z,4.22
2023-03-29T09:00:41.167Z,4.50
2023-03-29T09:03:48.444Z,4.75
2023-03-29T09:07:03.149Z,3.97
2023-03-29T09:10:17.217Z,5.35
2023-03-29T09:13:35.877Z,4.63
2023-03-29T09:16:46.647Z,12.35
2023-03-29T09:19:57.022Z,3.95
2023-03-29T09:23:15.090Z,5.78
2023-03-29T09:26:49.400Z,3.42
2023-03-29T09:30:14.583Z,3.30
2023-03-29T09:33:31.896Z,3.40
2023-03-29T09:36:46.330Z,2.65
2023-03-29T09:39:53.068Z,2.83
2023-03-29T09:43:00.915Z,2.78
2023-03-29T09:46:11.982Z,2.70
2023-03-29T09:49:20.284Z,4.25
2023-03-29T09:52:24.470Z,3.95
2023-03-29T09:55:52.510Z,3.72
2023-03-29T09:59:17.890Z,3.45
2023-03-29T10:02:22.543Z,3.28
2023-03-29T10:05:29.558Z,2.80
2023-03-29T10:08:40.777Z,3.38
2023-03-29T10:14:55.330Z,4.25
2023-03-29T10:18:04.177Z,3.20
2023-03-29T10:21:08.304Z,4.68
2023-03-29T10:24:11.728Z,3.25
2023-03-29T10:27:19.308Z,10.30
2023-03-29T10:30:25.069Z,5.97
2023-03-29T10:33:32.742Z,3.10
2023-03-29T10:36:37.037Z,3.65
2023-03-29T10:39:50.097Z,3.10
2023-03-29T10:42:54.890Z,4.82
2023-03-29T10:46:16.332Z,3.13
2023-03-29T10:49:21.786Z,3.50
2023-03-29T10:52:25.589Z,4.00
2023-03-29T10:55:36.018Z,3.72
2023-03-29T10:58:57.468Z,3.80
2023-03-29T11:02:37.124Z,3.75
2023-03-29T11:05:47.347Z,2.93
2023-03-29T11:08:57.864Z,3.30
2023-03-29T11:15:37.496Z,5.18
2023-03-29T11:19:06.742Z,3.22
2023-03-29T11:22:17.547Z,6.72
2023-03-29T11:25:29.797Z,3.00
2023-03-29T11:28:42.166Z,3.30
2023-03-29T11:31:58.640Z,3.20
2023-03-29T11:35:12.311Z,3.33
2023-03-29T11:38:24.123Z,4.22
2023-03-29T11:41:30.970Z,3.15
2023-03-29T11:44:36.356Z,3.53
2023-03-29T11:47:44.448Z,3.60
2023-03-29T11:50:56.078Z,3.35
2023-03-29T11:54:05.612Z,3.90
2023-03-29T11:57:16.326Z,19.33
2023-03-29T12:00:24.586Z,2.70
2023-03-29T12:03:38.845Z,5.38
2023-03-29T12:06:48.661Z,3.35
2023-03-29T12:09:54.808Z,2.60
2023-03-29T12:13:05.697Z,3.33
2023-03-29T12:16:16.802Z,2.85
2023-03-29T12:19:25.782Z,2.90
2023-03-29T12:22:29.354Z,2.90
2023-03-29T12:25:42.926Z,3.05
2023-03-29T12:29:07.185Z,2.88
2023-03-29T12:32:29.401Z,3.17
2023-03-29T12:35:58.957Z,3.10
2023-03-29T12:39:38.889Z,3.08
2023-03-29T12:43:08.838Z,2.40
2023-03-29T12:46:32.938Z,3.20
2023-03-29T12:49:39.301Z,2.97
2023-03-29T12:52:44.122Z,3.00
2023-03-29T12:55:56.577Z,2.60
2023-03-29T12:59:25.676Z,2.92
2023-03-29T13:02:38.017Z,2.72
2023-03-29T13:05:41.962Z,2.92
2023-03-29T13:08:47.951Z,2.70
2023-03-29T13:11:54.328Z,2.42
2023-03-29T13:15:00.365Z,2.70
2023-03-29T13:18:12.612Z,2.95
2023-03-29T13:21:22.866Z,3.05
2023-03-29T13:24:47.972Z,3.08
2023-03-29T13:27:58.788Z,2.38
2023-03-29T13:31:08.599Z,2.65
2023-03-29T13:34:24.914Z,2.70
2023-03-29T13:37:38.926Z,3.00
2023-03-29T13:40:59.385Z,3.80
2023-03-29T13:44:02.909Z,2.90
2023-03-29T13:47:16.432Z,2.70
2023-03-29T13:50:30.556Z,4.03
2023-03-29T13:53:37.459Z,4.38
2023-03-29T13:56:51.661Z,3.30
2023-03-29T14:00:00.696Z,3.17
2023-03-29T14:03:08.642Z,3.50
2023-03-29T14:06:15.765Z,4.00
2023-03-29T14:09:19.848Z,3.28
2023-03-29T14:12:24.519Z,3.70
2023-03-29T14:15:43.979Z,3.50
2023-03-29T14:18:51.220Z,4.23
2023-03-29T14:21:55.069Z,5.00
2023-03-29T14:25:04.632Z,3.67
2023-03-29T14:28:21.108Z,4.10
2023-03-29T14:31:26.148Z,5.75
2023-03-29T14:34:29.566Z,5.05
2023-03-29T14:37:32.871Z,11.57
2023-03-29T14:40:36.458Z,18.20
2023-03-29T14:43:41.992Z,20.83
2023-03-29T14:46:46.785Z,6.00
2023-03-29T14:49:50.795Z,4.07
2023-03-29T14:52:56.023Z,4.15
2023-03-29T14:56:00.923Z,4.28
2023-03-29T14:59:17.802Z,4.53
2023-03-29T15:02:26.673Z,4.10
2023-03-29T15:05:40.266Z,5.38
2023-03-29T15:08:58.080Z,4.78
2023-03-29T15:12:08.568Z,5.07
2023-03-29T15:15:15.368Z,4.35
2023-03-29T15:18:33.469Z,4.15
2023-03-29T15:21:39.715Z,3.60
2023-03-29T15:24:48.542Z,4.05
2023-03-29T15:27:59.573Z,5.65
2023-03-29T15:31:12.539Z,5.25
2023-03-29T15:34:26.699Z,5.80
2023-03-29T15:37:30.744Z,5.60
2023-03-29T15:40:34.402Z,5.13
2023-03-29T15:43:38.171Z,5.13
2023-03-29T15:46:42.921Z,5.40
2023-03-29T15:49:48.939Z,5.47
2023-03-29T15:52:59.961Z,5.10
2023-03-29T15:56:18.372Z,5.30
2023-03-29T15:59:21.833Z,6.00
2023-03-29T16:02:26.767Z,6.30
2023-03-29T16:05:30.212Z,8.52
2023-03-29T16:08:33.703Z,7.38
2023-03-29T16:11:37.210Z,7.03
2023-03-29T16:14:43.748Z,6.80
2023-03-29T16:17:51.028Z,8.40
2023-03-29T16:20:54.530Z,8.30
2023-03-29T16:23:57.896Z,7.63
2023-03-29T16:27:03.442Z,10.88
2023-03-29T16:30:08.866Z,12.32
2023-03-29T16:33:14.185Z,10.60
2023-03-29T16:36:18.253Z,10.52
2023-03-29T16:39:21.923Z,10.90
2023-03-29T16:42:28.255Z,15.80
2023-03-29T16:45:31.799Z,16.15
2023-03-29T16:48:36.819Z,17.70
2023-03-29T16:51:40.471Z,17.15
2023-03-29T16:54:45.685Z,17.50
2023-03-29T16:57:50.962Z,15.27
2023-03-29T17:00:56.327Z,15.00
2023-03-29T17:04:01.607Z,18.63
2023-03-29T17:07:05.081Z,15.77
2023-03-29T17:10:09.270Z,16.20
2023-03-29T17:13:14.060Z,18.08
2023-03-29T17:16:17.500Z,27.45
2023-03-29T17:19:22.281Z,23.30
2023-03-29T17:22:26.058Z,25.40
2023-03-29T17:25:29.968Z,24.55
2023-03-29T17:28:33.323Z,28.20
2023-03-29T17:31:38.038Z,32.20
2023-03-29T17:34:42.831Z,33.65
2023-03-29T17:37:46.211Z,36.53
2023-03-29T17:40:53.915Z,36.05
2023-03-29T17:43:57.279Z,40.17
2023-03-29T17:47:00.928Z,39.05
2023-03-29T17:50:06.781Z,40.28
2023-03-29T17:53:10.203Z,40.45
2023-03-29T17:56:13.909Z,46.35
2023-03-29T17:59:17.476Z,52.97
2023-03-29T18:02:22.651Z,49.22
2023-03-29T18:05:27.966Z,62.33
2023-03-29T18:08:31.785Z,95.82
2023-03-29T18:11:36.368Z,75.25
2023-03-29T18:14:39.712Z,78.43
2023-03-29T18:17:43.637Z,100.72
2023-03-29T18:20:49.727Z,88.70
2023-03-29T18:23:56.804Z,91.80
2023-03-29T18:27:02.122Z,73.63
2023-03-29T18:30:08.757Z,86.18
2023-03-29T18:33:12.154Z,67.88
2023-03-29T18:36:17.113Z,74.35
2023-03-29T18:39:20.575Z,64.20
2023-03-29T18:42:23.842Z,64.55
2023-03-29T18:45:27.150Z,60.30
2023-03-29T18:48:33.594Z,65.55
2023-03-29T18:51:38.329Z,80.30
2023-03-29T18:54:41.858Z,58.15
2023-03-29T18:57:45.380Z,59.88
2023-03-29T19:00:48.633Z,57.28
2023-03-29T19:03:54.011Z,76.10
2023-03-29T19:06:59.801Z,63.22
2023-03-29T19:10:03.617Z,68.57
2023-03-29T19:13:07.519Z,76.13
2023-03-29T19:16:12.118Z,202.98
2023-03-29T19:19:15.621Z,118.53
2023-03-29T19:22:20.302Z,122.22
2023-03-29T19:25:23.670Z,103.47
2023-03-29T19:28:27.338Z,91.93
2023-03-29T19:31:31.794Z,119.13
2023-03-29T19:34:35.621Z,101.85
2023-03-29T19:37:40.511Z,94.03
2023-03-29T19:40:46.115Z,90.30
2023-03-29T19:43:51.932Z,85.38
2023-03-29T19:46:55.348Z,90.97
2023-03-29T19:49:58.978Z,93.68
2023-03-29T19:53:03.645Z,94.22
2023-03-29T19:56:10.719Z,110.78
2023-03-29T19:59:15.395Z,124.80
2023-03-29T20:02:19.877Z,134.77
2023-03-29T20:05:24.046Z,138.02
2023-03-29T20:08:28.677Z,135.18
2023-03-29T20:11:31.953Z,128.27
2023-03-29T20:14:37.950Z,146.88
2023-03-29T20:17:41.598Z,161.27
2023-03-29T20:20:45.210Z,202.70
2023-03-29T20:23:49.899Z,186.90
2023-03-29T20:26:53.445Z,162.63
2023-03-29T20:29:57.247Z,166.77
2023-03-29T20:33:00.623Z,147.48
2023-03-29T20:36:04.671Z,130.60
2023-03-29T20:39:09.457Z,132.68
2023-03-29T20:42:14.115Z,120.88
2023-03-29T20:45:19.517Z,105.20
2023-03-29T20:48:24.737Z,73.53
2023-03-29T20:51:30.448Z,91.07
2023-03-29T20:54:35.489Z,62.75
2023-03-29T20:57:40.560Z,67.47
2023-03-29T21:00:44.131Z,64.80
2023-03-29T21:03:47.490Z,62.58
2023-03-29T21:06:50.750Z,50.35
2023-03-29T21:09:55.610Z,42.45
2023-03-29T21:13:00.531Z,40.67
2023-03-29T21:16:04.387Z,45.30
2023-03-29T21:19:07.813Z,41.05
2023-03-29T21:22:13.639Z,39.78
2023-03-29T21:25:18.362Z,42.00
2023-03-29T21:28:21.561Z,46.80
2023-03-29T21:31:25.017Z,45.35
2023-03-29T21:34:28.284Z,50.55
2023-03-29T21:37:31.578Z,47.10
2023-03-29T21:40:38.949Z,50.80
2023-03-29T21:43:42.149Z,47.00
2023-03-29T21:46:45.836Z,54.25
2023-03-29T21:49:49.132Z,57.65
2023-03-29T21:52:55.376Z,55.00
2023-03-29T21:55:59.950Z,52.95
2023-03-29T21:59:03.241Z,43.13
2023-03-29T22:02:06.741Z,38.28
2023-03-29T22:05:10.438Z,38.58
2023-03-29T22:08:13.635Z,31.10
2023-03-29T22:11:18.519Z,30.52
2023-03-29T22:14:21.992Z,28.70
2023-03-29T22:17:26.533Z,27.23
2023-03-29T22:20:30.154Z,23.77
2023-03-29T22:23:33.637Z,23.52
2023-03-29T22:26:38.296Z,21.02
2023-03-29T22:29:41.460Z,19.38
2023-03-29T22:32:44.948Z,19.48
2023-03-29T22:35:48.502Z,19.40
2023-03-29T22:38:52.716Z,19.13
2023-03-29T22:41:57.253Z,19.75
2023-03-29T22:45:00.457Z,20.25
2023-03-29T22:48:03.674Z,19.17
2023-03-29T22:51:07.346Z,19.77
2023-03-29T22:54:10.565Z,20.35
2023-03-29T22:57:15.582Z,20.05
2023-03-29T23:00:31.179Z,18.52
2023-03-29T23:03:34.655Z,19.02
2023-03-29T23:06:38.071Z,20.25
2023-03-29T23:09:41.497Z,19.48
2023-03-29T23:12:46.055Z,18.90
2023-03-29T23:15:50.221Z,19.02
2023-03-29T23:18:53.440Z,18.27
2023-03-29T23:21:56.761Z,18.30
2023-03-29T23:25:00.376Z,17.98
2023-03-29T23:28:05.122Z,16.58
2023-03-29T23:31:10.525Z,16.63
2023-03-29T23:34:14.436Z,16.63
2023-03-29T23:37:17.570Z,15.40
2023-03-29T23:40:21.296Z,16.17
2023-03-29T23:43:27.096Z,15.10
2023-03-29T23:46:31.322Z,15.77
2023-03-29T23:49:34.599Z,15.00
2023-03-29T23:52:38.130Z,15.15
2023-03-29T23:55:41.267Z,15.05
2023-03-29T23:58:46.052Z,14.82
